Time;durP1;ratioP1;P1;durP2;ratioP2;P2;SDS_P1;SDS_P2;PMS_P1;PMS_P2;Temp;Humidity;BMP_temperature;BMP_pressure;BME280_temperature;BME280_humidity;BME280_pressure;Samples;Min_cycle;Max_cycle;Signal;HPM_P1;HPM_P2
2022/07/21 00:02:23;;;;;;;11.60;10.10;;;22.60;99.90;;;;;;5070321;28;20478;-70
2022/07/21 00:05:10;;;;;;;14.67;10.20;;;22.70;99.90;;;;;;5081516;28;20453;-71
2022/07/21 00:07:57;;;;;;;16.90;11.13;;;22.60;99.90;;;;;;5081170;28;20488;-70
2022/07/21 00:10:42;;;;;;;17.10;11.10;;;22.50;99.90;;;;;;5064489;28;21070;-71
2022/07/21 00:13:28;;;;;;;12.60;9.63;;;22.50;99.90;;;;;;5081999;28;20802;-70
2022/07/21 00:16:14;;;;;;;13.50;10.70;;;22.30;99.90;;;;;;5074308;28;20442;-71
2022/07/21 00:19:00;;;;;;;21.37;10.57;;;22.20;99.90;;;;;;5084429;28;20469;-70
2022/07/21 00:21:46;;;;;;;14.57;10.10;;;22.30;99.90;;;;;;5071578;28;20798;-70
2022/07/21 00:24:32;;;;;;;12.10;8.87;;;22.40;99.90;;;;;;5083151;28;20437;-71
2022/07/21 00:27:18;;;;;;;13.30;10.57;;;22.50;99.90;;;;;;5087016;28;20471;-70
2022/07/21 00:30:05;;;;;;;13.87;10.47;;;22.30;99.90;;;;;;5073359;28;20484;-70
2022/07/21 00:32:50;;;;;;;18.00;11.30;;;22.20;99.90;;;;;;5076499;28;20493;-71
2022/07/21 00:35:37;;;;;;;15.03;11.10;;;22.20;99.90;;;;;;5071313;28;20477;-71
2022/07/21 00:38:22;;;;;;;12.80;10.60;;;22.20;99.90;;;;;;5079386;28;20465;-73
2022/07/21 00:41:09;;;;;;;11.53;10.43;;;22.20;99.90;;;;;;5070095;28;20470;-72
2022/07/21 00:43:55;;;;;;;11.60;9.77;;;22.10;99.90;;;;;;5077857;28;20466;-73
2022/07/21 00:46:40;;;;;;;11.90;9.63;;;22.10;99.90;;;;;;5075928;28;20442;-72
2022/07/21 00:49:27;;;;;;;14.87;11.00;;;22.10;99.90;;;;;;5080542;28;21045;-72
2022/07/21 00:52:13;;;;;;;13.57;10.43;;;22.00;99.90;;;;;;5079210;28;20438;-73
2022/07/21 00:54:58;;;;;;;13.60;10.17;;;22.00;99.90;;;;;;5078371;28;20986;-73
2022/07/21 00:57:46;;;;;;;11.60;10.13;;;22.00;99.90;;;;;;5073266;28;20450;-73
2022/07/21 01:00:32;;;;;;;23.80;12.00;;;22.00;99.90;;;;;;5068023;28;20485;-73
2022/07/21 01:03:18;;;;;;;12.70;10.97;;;21.90;99.90;;;;;;5084094;28;20483;-72
2022/07/21 01:06:04;;;;;;;13.47;9.60;;;21.80;99.90;;;;;;5082506;28;20548;-73
2022/07/21 01:08:50;;;;;;;14.10;10.57;;;21.70;99.90;;;;;;5076943;28;20950;-73
2022/07/21 01:11:36;;;;;;;13.90;12.20;;;21.70;99.90;;;;;;5072759;28;20435;-73
2022/07/21 01:14:24;;;;;;;14.40;12.90;;;21.70;99.90;;;;;;5073693;28;20515;-73
2022/07/21 01:17:09;;;;;;;15.97;13.30;;;21.80;99.90;;;;;;5075610;28;20411;-73
2022/07/21 01:19:55;;;;;;;16.20;14.50;;;21.80;99.90;;;;;;5063282;28;20447;-73
2022/07/21 01:22:45;;;;;;;20.63;14.60;;;21.80;99.90;;;;;;5076390;28;20465;-73
2022/07/21 01:25:31;;;;;;;22.70;14.87;;;21.80;99.90;;;;;;5075788;28;20429;-73
2022/07/21 01:28:17;;;;;;;17.23;15.50;;;21.90;99.90;;;;;;5074347;28;20520;-72
2022/07/21 01:31:02;;;;;;;23.73;15.87;;;22.00;99.90;;;;;;5070411;28;20519;-73
2022/07/21 01:33:48;;;;;;;17.40;15.60;;;22.00;99.90;;;;;;5074062;28;20642;-73
2022/07/21 01:36:34;;;;;;;17.47;15.57;;;22.10;99.90;;;;;;5081306;28;20454;-73
2022/07/21 01:42:25;;;;;;;19.00;17.00;;;22.10;99.90;;;;;;5078876;28;20447;-73
2022/07/21 01:45:11;;;;;;;21.73;17.23;;;22.10;99.90;;;;;;5081589;28;21040;-72
2022/07/21 01:47:57;;;;;;;22.73;17.70;;;22.10;99.90;;;;;;5077402;28;20477;-73
2022/07/21 01:50:42;;;;;;;18.80;16.73;;;22.20;99.90;;;;;;5070516;28;20436;-72
2022/07/21 01:53:28;;;;;;;19.80;17.70;;;22.30;99.90;;;;;;5081672;28;20414;-73
2022/07/21 01:56:16;;;;;;;20.37;18.33;;;22.30;99.90;;;;;;5076017;28;20446;-73
2022/07/21 01:59:02;;;;;;;20.57;17.43;;;22.30;99.90;;;;;;5073738;28;20996;-73
2022/07/21 02:01:48;;;;;;;19.30;17.50;;;22.30;99.90;;;;;;5069748;28;20810;-72
2022/07/21 02:04:34;;;;;;;20.20;17.60;;;22.20;99.90;;;;;;5080056;28;20609;-72
2022/07/21 02:07:20;;;;;;;20.93;18.00;;;22.30;99.90;;;;;;5078105;28;20450;-73
2022/07/21 02:10:07;;;;;;;22.67;19.17;;;22.10;99.90;;;;;;5069196;28;20443;-73
2022/07/21 02:12:53;;;;;;;21.10;18.90;;;22.10;99.90;;;;;;5078728;28;20532;-72
2022/07/21 02:15:39;;;;;;;20.60;18.60;;;22.10;99.90;;;;;;5069469;28;20457;-73
2022/07/21 02:18:25;;;;;;;22.57;19.50;;;22.00;99.90;;;;;;5071373;28;21028;-72
2022/07/21 02:21:11;;;;;;;23.10;20.60;;;21.80;99.90;;;;;;5075727;28;20442;-73
2022/07/21 02:23:57;;;;;;;27.20;19.77;;;21.70;99.90;;;;;;5083361;28;20474;-73
2022/07/21 02:26:43;;;;;;;21.63;19.10;;;21.70;99.90;;;;;;5070782;28;20575;-73
2022/07/21 02:29:30;;;;;;;25.47;20.90;;;21.80;99.90;;;;;;5060197;28;20486;-73
2022/07/21 02:32:16;;;;;;;22.87;20.40;;;21.80;99.90;;;;;;5079266;28;20441;-73
2022/07/21 02:35:02;;;;;;;23.70;19.60;;;21.90;99.90;;;;;;5077301;28;20535;-73
2022/07/21 02:37:48;;;;;;;23.03;19.60;;;21.90;99.90;;;;;;5067334;28;20451;-73
2022/07/21 02:40:34;;;;;;;21.83;19.63;;;22.00;99.90;;;;;;5069238;28;20430;-73
2022/07/21 02:43:20;;;;;;;27.03;19.97;;;22.00;99.90;;;;;;5073954;28;20505;-73
2022/07/21 02:46:07;;;;;;;23.03;20.63;;;22.00;99.90;;;;;;5076878;28;20454;-73
2022/07/21 02:48:53;;;;;;;24.00;21.40;;;22.10;99.90;;;;;;5068141;28;20999;-73
2022/07/21 02:51:38;;;;;;;24.40;21.90;;;22.10;99.90;;;;;;5077534;28;20446;-73
2022/07/21 02:54:24;;;;;;;28.43;22.30;;;22.00;99.90;;;;;;5076617;28;20427;-72
2022/07/21 02:57:10;;;;;;;24.73;22.10;;;21.90;99.90;;;;;;5083123;28;20820;-73
2022/07/21 02:59:56;;;;;;;24.77;21.80;;;22.00;99.90;;;;;;5075763;28;20461;-73
2022/07/21 03:02:43;;;;;;;27.95;21.70;;;22.00;99.90;;;;;;5075973;28;20821;-73
2022/07/21 03:05:28;;;;;;;24.30;21.77;;;22.00;99.90;;;;;;5071737;28;20596;-73
2022/07/21 03:08:14;;;;;;;28.77;23.90;;;22.00;99.90;;;;;;5070084;28;20469;-72
2022/07/21 03:11:00;;;;;;;26.83;24.03;;;22.00;99.90;;;;;;5075818;28;20525;-73
2022/07/21 03:13:45;;;;;;;23.87;21.43;;;22.00;99.90;;;;;;5070417;28;20442;-73
2022/07/21 03:16:31;;;;;;;26.80;23.07;;;21.90;99.90;;;;;;5075720;28;20431;-71
2022/07/21 03:19:18;;;;;;;25.17;22.60;;;22.00;99.90;;;;;;5065477;28;20461;-71
2022/07/21 03:22:04;;;;;;;29.23;24.27;;;22.00;99.90;;;;;;5075311;28;20691;-71
2022/07/21 03:24:50;;;;;;;24.83;21.47;;;22.00;99.90;;;;;;5071500;28;20557;-71
2022/07/21 03:27:36;;;;;;;24.73;21.73;;;21.90;99.90;;;;;;5068429;28;21090;-71
2022/07/21 03:30:23;;;;;;;24.67;22.17;;;21.90;99.90;;;;;;5080824;28;20931;-71
2022/07/21 03:33:08;;;;;;;26.50;23.70;;;21.90;99.90;;;;;;5075582;28;20431;-71
2022/07/21 03:35:57;;;;;;;25.90;22.43;;;21.90;99.90;;;;;;5069409;28;20455;-71
2022/07/21 03:38:43;;;;;;;24.97;22.57;;;21.90;99.90;;;;;;5062181;28;20470;-71
2022/07/21 03:41:28;;;;;;;28.63;21.87;;;21.80;99.90;;;;;;5076270;28;20442;-71
2022/07/21 03:44:14;;;;;;;23.87;21.37;;;21.90;99.90;;;;;;5074050;28;20833;-70
2022/07/21 03:47:00;;;;;;;25.60;23.00;;;22.00;99.90;;;;;;5070434;28;20827;-71
2022/07/21 03:49:46;;;;;;;24.03;21.30;;;21.90;99.90;;;;;;5064633;28;20454;-71
2022/07/21 03:52:33;;;;;;;25.57;21.33;;;21.90;99.90;;;;;;5074097;28;20438;-71
2022/07/21 03:55:18;;;;;;;24.33;21.93;;;22.00;99.90;;;;;;5073556;28;20495;-71
2022/07/21 03:58:06;;;;;;;23.10;20.70;;;22.00;99.90;;;;;;5063817;28;20868;-71
2022/07/21 04:00:51;;;;;;;26.87;20.10;;;22.10;99.90;;;;;;5076850;28;20499;-71
2022/07/21 04:03:37;;;;;;;22.60;20.20;;;22.10;99.90;;;;;;5076949;28;20920;-71
2022/07/21 04:06:23;;;;;;;23.97;21.47;;;22.10;99.90;;;;;;5075240;28;20445;-71
2022/07/21 04:09:11;;;;;;;22.43;20.10;;;22.10;99.90;;;;;;5060816;28;20473;-71
2022/07/21 04:11:57;;;;;;;22.13;19.90;;;22.10;99.90;;;;;;5085873;28;20500;-71
2022/07/21 04:14:42;;;;;;;22.50;20.10;;;22.20;99.90;;;;;;5067875;28;20414;-71
2022/07/21 04:17:28;;;;;;;20.33;18.37;;;22.30;99.90;;;;;;5064559;28;20454;-71
2022/07/21 04:20:15;;;;;;;20.80;18.70;;;22.30;99.90;;;;;;5073521;28;20782;-71
2022/07/21 04:23:01;;;;;;;21.67;19.40;;;22.30;99.90;;;;;;5078522;28;20438;-71
2022/07/21 04:25:48;;;;;;;27.50;19.40;;;22.20;99.90;;;;;;5071428;28;20784;-71
2022/07/21 04:28:34;;;;;;;23.27;18.57;;;22.30;99.90;;;;;;5067849;28;20596;-71
2022/07/21 04:31:19;;;;;;;24.47;19.20;;;22.30;99.90;;;;;;5080173;28;20925;-71
2022/07/21 04:34:05;;;;;;;22.53;18.80;;;22.30;99.90;;;;;;5076360;28;20812;-71
2022/07/21 04:36:50;;;;;;;23.80;20.27;;;22.40;99.90;;;;;;5056796;28;20493;-70
2022/07/21 04:39:36;;;;;;;20.80;18.77;;;22.40;99.90;;;;;;5071428;28;20458;-70
2022/07/21 04:42:23;;;;;;;31.00;20.80;;;22.50;99.90;;;;;;5072419;28;20972;-70
2022/07/21 04:45:10;;;;;;;23.47;21.03;;;22.40;99.90;;;;;;5076109;28;20486;-70
2022/07/21 04:47:56;;;;;;;24.87;21.43;;;22.50;99.90;;;;;;5066515;28;20478;-70
2022/07/21 04:50:42;;;;;;;27.27;20.87;;;22.50;99.90;;;;;;5081548;28;20440;-70
2022/07/21 04:53:27;;;;;;;25.70;21.47;;;22.50;99.90;;;;;;5077763;28;20933;-70
2022/07/21 04:56:13;;;;;;;24.73;22.23;;;22.40;99.90;;;;;;5074221;28;20451;-70
2022/07/21 04:59:01;;;;;;;31.10;20.43;;;22.40;99.90;;;;;;5072113;28;20442;-70
2022/07/21 05:01:46;;;;;;;27.30;19.60;;;22.50;99.90;;;;;;5080500;28;20533;-71
2022/07/21 05:04:32;;;;;;;20.40;18.00;;;22.30;99.90;;;;;;5073083;28;20824;-70
2022/07/21 05:07:18;;;;;;;20.33;16.33;;;22.40;99.90;;;;;;5074997;28;20441;-70
2022/07/21 05:10:05;;;;;;;24.57;16.00;;;22.30;99.90;;;;;;5074100;28;20426;-71
2022/07/21 05:12:51;;;;;;;16.37;14.70;;;22.10;99.90;;;;;;5079132;28;20418;-70
2022/07/21 05:15:38;;;;;;;15.57;14.07;;;22.10;99.90;;;;;;5073666;28;20443;-70
2022/07/21 05:18:24;;;;;;;21.17;14.63;;;22.00;99.90;;;;;;5076363;28;20598;-70
2022/07/21 05:21:09;;;;;;;14.60;13.10;;;21.80;99.90;;;;;;5078423;28;20527;-70
2022/07/21 05:23:56;;;;;;;19.60;14.13;;;21.80;99.90;;;;;;5090336;28;21017;-70
2022/07/21 05:26:41;;;;;;;15.70;13.97;;;21.80;99.90;;;;;;5064640;28;20948;-71
2022/07/21 05:29:26;;;;;;;16.37;13.57;;;21.90;99.90;;;;;;5077132;28;20466;-70
2022/07/21 05:32:14;;;;;;;13.50;11.97;;;21.90;99.90;;;;;;5075217;28;20853;-69
2022/07/21 05:35:00;;;;;;;12.63;11.40;;;21.80;99.90;;;;;;5077152;28;20513;-70
2022/07/21 05:37:46;;;;;;;15.17;12.23;;;21.80;99.90;;;;;;5074560;28;20824;-70
2022/07/21 05:40:32;;;;;;;18.80;12.73;;;21.90;99.90;;;;;;5077472;28;20529;-70
2022/07/21 05:43:17;;;;;;;15.20;12.77;;;21.90;99.90;;;;;;5077310;28;20426;-70
2022/07/21 05:46:03;;;;;;;12.57;11.23;;;22.10;99.90;;;;;;5070826;28;20492;-70
2022/07/21 05:48:50;;;;;;;12.40;10.60;;;22.20;99.90;;;;;;5074941;28;20481;-70
2022/07/21 05:51:36;;;;;;;16.80;11.63;;;22.10;99.90;;;;;;5072093;28;21073;-71
2022/07/21 05:54:21;;;;;;;14.93;10.70;;;22.20;99.90;;;;;;5083754;28;20445;-70
2022/07/21 05:57:07;;;;;;;14.10;12.03;;;22.20;99.90;;;;;;5071918;28;20572;-70
2022/07/21 05:59:52;;;;;;;14.20;12.23;;;22.10;99.90;;;;;;5074175;28;20455;-71
2022/07/21 06:02:38;;;;;;;16.60;13.00;;;22.20;99.90;;;;;;5069055;28;20438;-71
2022/07/21 06:05:25;;;;;;;15.80;12.50;;;22.10;99.90;;;;;;5073052;28;20624;-71
2022/07/21 06:08:11;;;;;;;14.77;11.53;;;21.90;99.90;;;;;;5075854;28;20466;-71
2022/07/21 06:10:57;;;;;;;18.50;12.90;;;22.00;99.90;;;;;;5072223;28;20434;-70
2022/07/21 06:13:43;;;;;;;16.60;11.57;;;22.10;99.90;;;;;;5078148;28;20811;-70
2022/07/21 06:16:29;;;;;;;13.03;11.73;;;22.10;99.90;;;;;;5057416;28;20442;-70
2022/07/21 06:19:14;;;;;;;15.60;11.03;;;22.30;99.90;;;;;;5077183;28;20544;-71
2022/07/21 06:22:02;;;;;;;16.07;12.50;;;22.30;99.90;;;;;;5064668;28;20785;-70
2022/07/21 06:24:47;;;;;;;16.53;12.40;;;22.20;99.90;;;;;;5072703;28;20528;-70
2022/07/21 06:27:33;;;;;;;13.00;11.67;;;22.20;99.90;;;;;;5065075;28;20489;-71
2022/07/21 06:30:19;;;;;;;15.67;11.47;;;22.10;99.90;;;;;;5077790;28;20441;-71
2022/07/21 06:33:04;;;;;;;13.10;11.43;;;22.10;99.90;;;;;;5078935;28;20484;-70
2022/07/21 06:35:50;;;;;;;15.57;11.73;;;22.00;99.90;;;;;;5069790;28;20450;-70
2022/07/21 06:38:37;;;;;;;17.60;11.87;;;22.00;99.90;;;;;;5073858;28;20505;-70
2022/07/21 06:41:23;;;;;;;18.50;12.40;;;22.10;99.90;;;;;;5078378;28;20418;-70
2022/07/21 06:44:09;;;;;;;13.13;11.83;;;22.20;99.90;;;;;;5076632;28;20473;-71
2022/07/21 06:46:55;;;;;;;18.07;11.93;;;22.30;99.90;;;;;;5069724;28;20497;-70
2022/07/21 06:49:40;;;;;;;22.70;11.17;;;22.30;99.90;;;;;;5078971;28;20959;-70
2022/07/21 06:52:26;;;;;;;12.73;11.50;;;22.20;99.90;;;;;;5075778;28;20553;-70
2022/07/21 06:55:13;;;;;;;16.03;12.50;;;22.30;99.90;;;;;;5064064;28;20510;-71
2022/07/21 06:57:59;;;;;;;13.40;11.87;;;22.40;99.90;;;;;;5079308;28;20520;-71
2022/07/21 07:00:46;;;;;;;11.97;10.50;;;22.50;99.90;;;;;;5067553;28;21021;-71
2022/07/21 07:03:33;;;;;;;13.37;11.70;;;22.40;99.90;;;;;;5077365;28;20969;-71
2022/07/21 07:06:18;;;;;;;11.60;10.40;;;22.30;99.90;;;;;;5068605;28;20946;-71
2022/07/21 07:09:04;;;;;;;13.13;10.27;;;22.50;99.90;;;;;;5074107;28;20477;-71
2022/07/21 07:11:52;;;;;;;11.50;10.30;;;22.50;99.90;;;;;;5079198;28;20598;-71
2022/07/21 07:14:38;;;;;;;16.00;11.17;;;22.60;99.90;;;;;;5065840;28;20442;-70
2022/07/21 07:17:23;;;;;;;12.43;11.00;;;22.60;99.90;;;;;;5074772;28;20454;-71
2022/07/21 07:20:10;;;;;;;13.73;10.90;;;22.70;99.90;;;;;;5080675;28;20574;-70
2022/07/21 07:22:55;;;;;;;12.90;10.70;;;22.80;99.90;;;;;;5078725;28;20446;-70
2022/07/21 07:25:41;;;;;;;13.77;10.70;;;22.90;99.90;;;;;;5067586;28;20538;-70
2022/07/21 07:28:28;;;;;;;15.73;11.07;;;22.80;99.90;;;;;;5077359;28;20862;-70
2022/07/21 07:31:14;;;;;;;11.27;10.13;;;22.90;99.90;;;;;;5077148;28;20808;-70
2022/07/21 07:34:00;;;;;;;12.70;10.43;;;23.00;99.90;;;;;;5078413;28;20460;-70
2022/07/21 07:36:45;;;;;;;13.30;10.43;;;23.10;99.90;;;;;;5080286;28;20446;-70
2022/07/21 07:39:31;;;;;;;12.13;10.00;;;23.20;99.90;;;;;;5084478;28;20592;-70
2022/07/21 07:42:16;;;;;;;12.13;10.67;;;23.10;99.90;;;;;;5083462;28;20449;-70
2022/07/21 07:45:04;;;;;;;10.63;9.57;;;23.00;99.90;;;;;;5072958;28;20476;-70
2022/07/21 07:47:50;;;;;;;12.47;10.07;;;23.00;99.90;;;;;;5076558;28;20535;-71
2022/07/21 07:50:36;;;;;;;11.90;9.10;;;23.10;99.90;;;;;;5085595;28;20556;-70
2022/07/21 07:53:21;;;;;;;16.17;10.50;;;23.10;99.90;;;;;;5080330;28;20577;-70
2022/07/21 07:56:08;;;;;;;12.93;9.77;;;23.10;99.90;;;;;;5070274;28;20433;-71
2022/07/21 07:58:53;;;;;;;10.33;9.23;;;23.00;99.90;;;;;;5058252;28;20474;-70
2022/07/21 08:01:40;;;;;;;11.50;8.70;;;22.90;99.90;;;;;;5077083;28;20428;-70
2022/07/21 08:04:26;;;;;;;13.60;10.10;;;22.70;99.90;;;;;;5069229;28;20967;-70
2022/07/21 08:07:12;;;;;;;9.97;8.80;;;22.70;99.90;;;;;;5075246;28;20418;-70
2022/07/21 08:09:57;;;;;;;12.33;8.83;;;22.80;99.90;;;;;;5073877;28;20491;-70
2022/07/21 08:12:43;;;;;;;10.20;9.20;;;23.00;99.90;;;;;;5075208;28;20451;-70
2022/07/21 08:15:29;;;;;;;12.70;8.70;;;23.20;99.90;;;;;;5071422;28;20513;-70
2022/07/21 08:18:16;;;;;;;9.50;8.50;;;23.20;99.90;;;;;;5082447;28;20477;-71
2022/07/21 08:21:02;;;;;;;9.30;8.03;;;23.30;99.90;;;;;;5083505;28;20564;-70
2022/07/21 08:23:47;;;;;;;8.80;7.70;;;23.30;99.90;;;;;;5073750;28;20814;-70
2022/07/21 08:26:33;;;;;;;13.43;8.20;;;23.30;99.90;;;;;;5083346;28;20535;-70
2022/07/21 08:29:19;;;;;;;8.50;7.60;;;23.10;99.90;;;;;;5081899;28;20968;-70
2022/07/21 08:32:05;;;;;;;12.83;9.00;;;23.00;99.90;;;;;;5076695;28;20456;-70
2022/07/21 08:34:53;;;;;;;9.90;8.90;;;22.90;99.90;;;;;;5075015;28;20595;-70
2022/07/21 08:37:40;;;;;;;10.60;9.50;;;23.00;99.90;;;;;;5079476;28;20970;-70
2022/07/21 08:40:27;;;;;;;12.53;8.17;;;23.10;99.90;;;;;;5074648;28;20447;-71
2022/07/21 08:43:14;;;;;;;11.60;8.63;;;23.10;99.20;;;;;;5068766;28;20484;-70
2022/07/21 08:46:00;;;;;;;9.87;8.40;;;23.20;99.90;;;;;;5073115;28;20608;-71
2022/07/21 08:48:46;;;;;;;11.27;7.90;;;23.20;99.80;;;;;;5072678;28;21121;-70
2022/07/21 08:51:35;;;;;;;9.13;8.20;;;23.30;98.80;;;;;;5079199;28;20481;-70
2022/07/21 08:54:21;;;;;;;9.30;8.30;;;23.40;99.90;;;;;;5066407;28;21025;-71
2022/07/21 08:57:07;;;;;;;9.27;8.33;;;23.80;98.70;;;;;;5082628;28;20920;-71
2022/07/21 08:59:53;;;;;;;11.00;9.10;;;23.80;96.60;;;;;;5076514;28;20450;-70
2022/07/21 09:02:39;;;;;;;9.30;8.30;;;23.80;95.00;;;;;;5080355;28;20542;-71
2022/07/21 09:05:25;;;;;;;9.00;7.43;;;23.90;94.30;;;;;;5074876;28;20518;-70
2022/07/21 09:08:12;;;;;;;10.10;8.60;;;24.00;94.60;;;;;;5071380;28;20525;-70
2022/07/21 09:11:19;;;;;;;9.13;7.47;;;24.10;94.50;;;;;;5077346;28;20434;-71
2022/07/21 09:14:10;;;;;;;10.70;8.47;;;24.20;95.00;;;;;;5067190;28;20832;-71
2022/07/21 09:16:58;;;;;;;13.30;8.60;;;24.30;93.20;;;;;;5079854;28;20535;-70
2022/07/21 09:19:47;;;;;;;13.37;9.17;;;24.50;93.20;;;;;;5082091;28;20467;-71
2022/07/21 09:22:33;;;;;;;10.83;8.37;;;24.50;93.00;;;;;;5076483;28;20443;-70
2022/07/21 09:28:17;;;;;;;8.97;8.03;;;24.30;90.60;;;;;;5077852;27;20550;-72
2022/07/21 09:31:06;;;;;;;10.10;8.33;;;24.10;90.50;;;;;;5062190;28;20574;-72
2022/07/21 09:33:52;;;;;;;8.83;7.67;;;24.10;90.50;;;;;;5051777;28;20533;-71
2022/07/21 09:36:37;;;;;;;8.57;7.67;;;24.10;91.30;;;;;;5057158;28;20512;-71
2022/07/21 09:39:45;;;;;;;8.57;7.77;;;24.20;88.70;;;;;;5054123;28;20841;-71
2022/07/21 09:42:33;;;;;;;10.23;7.97;;;24.30;90.00;;;;;;5053961;28;20606;-72
2022/07/21 09:45:20;;;;;;;11.90;8.00;;;24.60;90.70;;;;;;5062664;28;20934;-71
2022/07/21 09:48:06;;;;;;;11.10;8.50;;;24.70;87.90;;;;;;5067859;28;20544;-71
2022/07/21 09:50:52;;;;;;;9.37;7.50;;;24.70;87.70;;;;;;5064261;28;20455;-71
2022/07/21 09:53:49;;;;;;;13.03;9.63;;;24.80;89.30;;;;;;5053167;28;20565;-71
2022/07/21 09:56:37;;;;;;;10.80;8.70;;;24.90;86.70;;;;;;5060116;28;20582;-72
2022/07/21 09:59:23;;;;;;;8.80;7.90;;;25.10;83.70;;;;;;5065811;28;20467;-71
2022/07/21 10:02:15;;;;;;;10.17;8.30;;;25.10;78.70;;;;;;5059051;28;20447;-72
2022/07/21 10:05:05;;;;;;;8.20;7.40;;;25.10;77.30;;;;;;5071463;28;20944;-71
2022/07/21 10:07:51;;;;;;;13.23;7.83;;;24.80;78.50;;;;;;5058488;28;20477;-71
2022/07/21 10:10:37;;;;;;;21.13;8.50;;;24.90;78.90;;;;;;5057420;28;20446;-71
2022/07/21 10:13:22;;;;;;;10.73;7.60;;;25.00;82.20;;;;;;5056345;28;20497;-71
2022/07/21 10:16:10;;;;;;;8.20;7.20;;;25.20;80.40;;;;;;5053434;28;20974;-72
2022/07/21 10:19:02;;;;;;;12.23;9.10;;;25.40;79.70;;;;;;5050701;28;20611;-72
2022/07/21 10:21:59;;;;;;;10.47;8.10;;;25.40;77.00;;;;;;5048365;28;20467;-72
2022/07/21 10:24:45;;;;;;;11.17;7.80;;;25.30;80.70;;;;;;5058564;28;20438;-72
2022/07/21 10:27:31;;;;;;;11.93;6.97;;;25.20;77.00;;;;;;5054889;28;20465;-71
2022/07/21 10:30:37;;;;;;;11.53;7.23;;;25.20;78.80;;;;;;5049502;28;20576;-71
2022/07/21 10:33:53;;;;;;;8.20;6.40;;;25.10;77.20;;;;;;5048697;28;20805;-72
2022/07/21 10:36:49;;;;;;;8.67;7.67;;;25.10;78.00;;;;;;5061948;22;20503;-79
2022/07/21 10:39:35;;;;;;;9.47;7.87;;;25.00;76.50;;;;;;5031085;28;20428;-79
2022/07/21 10:42:20;;;;;;;8.27;7.40;;;24.80;79.20;;;;;;5042244;28;20495;-79
2022/07/21 10:45:31;;;;;;;11.63;7.67;;;24.90;81.90;;;;;;5029774;28;20448;-78
2022/07/21 10:48:49;;;;;;;8.17;7.13;;;24.90;77.40;;;;;;5010347;28;20994;-80
2022/07/21 10:51:37;;;;;;;10.60;6.93;;;25.00;76.00;;;;;;5011703;28;20444;-78
2022/07/21 10:54:25;;;;;;;7.87;7.07;;;25.20;75.30;;;;;;5014722;28;20433;-76
2022/07/21 10:57:29;;;;;;;8.37;7.07;;;25.30;71.50;;;;;;5029438;28;20440;-75
2022/07/21 11:00:27;;;;;;;8.80;6.33;;;25.30;69.60;;;;;;5014668;28;20507;-76
2022/07/21 11:03:20;;;;;;;7.77;6.37;;;25.30;68.70;;;;;;5000973;28;20481;-75
2022/07/21 11:06:22;;;;;;;8.17;5.73;;;25.20;66.60;;;;;;5022231;28;20453;-76
2022/07/21 11:09:13;;;;;;;10.30;5.70;;;25.00;66.10;;;;;;5019342;28;20507;-76
2022/07/21 11:12:03;;;;;;;7.50;6.33;;;24.80;67.30;;;;;;5006883;28;20967;-76
2022/07/21 11:14:49;;;;;;;6.47;5.87;;;24.70;68.70;;;;;;5013616;28;20433;-76
2022/07/21 11:17:39;;;;;;;8.43;5.83;;;24.70;71.80;;;;;;5014348;28;20449;-76
2022/07/21 11:20:25;;;;;;;7.00;6.30;;;24.60;71.70;;;;;;5026484;28;20512;-75
2022/07/21 11:23:11;;;;;;;7.83;6.50;;;24.50;71.40;;;;;;5010155;28;20437;-75
2022/07/21 11:25:57;;;;;;;7.63;6.83;;;24.40;70.20;;;;;;5007690;28;20453;-75
2022/07/21 11:28:44;;;;;;;9.27;6.60;;;24.40;71.00;;;;;;5012622;28;20420;-76
2022/07/21 11:31:30;;;;;;;6.90;6.20;;;24.30;70.10;;;;;;4999351;28;20442;-76
2022/07/21 11:34:15;;;;;;;7.17;6.47;;;24.30;71.20;;;;;;5011446;28;20644;-76
2022/07/21 11:37:02;;;;;;;6.80;6.10;;;24.30;69.50;;;;;;5010980;28;20909;-75
2022/07/21 11:39:48;;;;;;;7.50;6.03;;;24.40;70.80;;;;;;5016434;28;20899;-75
2022/07/21 11:42:34;;;;;;;7.93;6.40;;;24.40;69.90;;;;;;5004596;28;20585;-76
2022/07/21 11:45:25;;;;;;;6.47;5.87;;;24.50;70.40;;;;;;5016597;28;20430;-76
2022/07/21 11:48:11;;;;;;;8.20;6.70;;;24.70;70.00;;;;;;5021296;28;20464;-76
2022/07/21 11:51:00;;;;;;;8.67;6.07;;;25.00;69.70;;;;;;5005402;28;20458;-76
2022/07/21 11:53:46;;;;;;;7.53;6.73;;;25.40;68.70;;;;;;5012622;28;20484;-76
2022/07/21 11:56:39;;;;;;;8.13;6.90;;;25.60;65.40;;;;;;5000500;28;20915;-76
2022/07/21 11:59:25;;;;;;;7.17;6.47;;;25.70;62.20;;;;;;5016179;28;20425;-76
2022/07/21 12:02:14;;;;;;;9.50;7.23;;;25.70;62.90;;;;;;5004508;28;20523;-76
2022/07/21 12:05:01;;;;;;;13.47;7.33;;;25.60;63.20;;;;;;5021978;28;20459;-75
2022/07/21 12:07:49;;;;;;;7.77;6.97;;;25.70;64.50;;;;;;5017315;28;20550;-75
2022/07/21 12:10:36;;;;;;;9.97;6.97;;;25.60;59.10;;;;;;5013822;28;20992;-78
2022/07/21 12:13:22;;;;;;;7.80;7.10;;;26.00;61.70;;;;;;5006970;28;20437;-77
2022/07/21 12:16:08;;;;;;;10.20;7.60;;;26.30;62.30;;;;;;5018747;28;20800;-77
2022/07/21 12:19:15;;;;;;;9.40;7.77;;;26.30;61.00;;;;;;5013163;28;20461;-78
2022/07/21 12:22:01;;;;;;;8.17;7.30;;;26.30;62.00;;;;;;5011001;28;20611;-78
2022/07/21 12:24:52;;;;;;;11.20;7.40;;;26.20;59.60;;;;;;5013159;28;20977;-77
2022/07/21 12:27:40;;;;;;;9.23;7.07;;;26.20;55.60;;;;;;5008445;28;20459;-77
2022/07/21 12:30:35;;;;;;;12.07;7.90;;;26.20;55.00;;;;;;5007793;28;20530;-77
2022/07/21 12:33:28;;;;;;;7.83;7.03;;;26.20;51.90;;;;;;5026382;28;20426;-77
2022/07/21 12:36:15;;;;;;;7.77;6.90;;;26.30;50.60;;;;;;5009664;28;20516;-77
2022/07/21 12:39:55;;;;;;;7.77;7.07;;;26.40;51.90;;;;;;5023344;28;20436;-77
2022/07/21 12:42:31;;;;;;;10.13;7.80;;;26.60;52.40;;;;;;5015881;28;20422;-77
2022/07/21 12:45:18;;;;;;;9.30;7.17;;;27.00;48.90;;;;;;5023009;28;20561;-78
2022/07/21 12:48:09;;;;;;;12.93;7.73;;;27.20;46.30;;;;;;5021382;28;20841;-78
2022/07/21 12:51:10;;;;;;;8.40;6.40;;;27.30;41.70;;;;;;5011630;28;20476;-78
2022/07/21 12:53:57;;;;;;;10.47;7.00;;;27.50;46.90;;;;;;5011526;28;20542;-77
2022/07/21 12:56:43;;;;;;;7.73;6.83;;;27.60;42.30;;;;;;5016358;28;20487;-78
2022/07/21 12:59:28;;;;;;;9.50;7.20;;;27.60;41.90;;;;;;5008003;28;20954;-78
2022/07/21 13:02:14;;;;;;;7.93;7.13;;;27.40;41.50;;;;;;5013380;28;20796;-78
2022/07/21 13:04:59;;;;;;;11.63;7.10;;;27.30;43.70;;;;;;5012495;28;20457;-78
2022/07/21 13:07:45;;;;;;;7.80;7.00;;;27.20;43.20;;;;;;5022834;28;20834;-78
2022/07/21 13:10:32;;;;;;;8.27;6.80;;;27.00;41.70;;;;;;5001728;28;20539;-78
2022/07/21 13:13:18;;;;;;;8.70;7.80;;;26.80;43.20;;;;;;5012841;28;20844;-78
2022/07/21 13:16:04;;;;;;;12.60;8.10;;;26.60;44.20;;;;;;5027577;28;20575;-78
2022/07/21 13:18:50;;;;;;;10.70;7.47;;;26.50;43.40;;;;;;5007126;28;20992;-78
2022/07/21 13:21:35;;;;;;;8.00;7.10;;;26.40;44.80;;;;;;5003103;28;20457;-78
2022/07/21 13:24:21;;;;;;;8.77;7.17;;;26.30;44.00;;;;;;5009342;28;20512;-78
2022/07/21 13:27:08;;;;;;;13.10;7.33;;;26.60;46.90;;;;;;5015483;28;21006;-78
2022/07/21 13:29:54;;;;;;;15.90;6.97;;;27.00;42.90;;;;;;5001513;28;20521;-78
2022/07/21 13:32:40;;;;;;;9.17;7.87;;;27.40;44.70;;;;;;5012781;28;20595;-77
2022/07/21 13:35:25;;;;;;;16.67;8.43;;;27.60;44.80;;;;;;5007026;28;21062;-78
2022/07/21 13:38:12;;;;;;;9.63;7.30;;;27.80;40.60;;;;;;5016183;28;21011;-78
2022/07/21 13:40:58;;;;;;;8.17;7.37;;;27.80;41.00;;;;;;5007160;28;20827;-78
2022/07/21 13:43:45;;;;;;;7.73;6.73;;;27.70;40.70;;;;;;5014655;28;20457;-78
2022/07/21 13:46:30;;;;;;;7.47;6.70;;;27.80;42.30;;;;;;5008843;28;21084;-78
2022/07/21 13:49:16;;;;;;;8.63;6.67;;;27.90;41.70;;;;;;5006482;28;21022;-78
2022/07/21 13:52:01;;;;;;;8.70;7.57;;;28.20;41.80;;;;;;5004916;28;20449;-79
2022/07/21 13:54:47;;;;;;;14.53;6.87;;;28.50;38.80;;;;;;5005218;28;20449;-79
2022/07/21 13:57:32;;;;;;;10.20;7.23;;;28.60;37.90;;;;;;5010525;28;20922;-79
2022/07/21 14:00:19;;;;;;;8.83;6.73;;;28.80;38.70;;;;;;5009601;28;20449;-78
2022/07/21 14:03:05;;;;;;;8.17;6.63;;;29.00;36.00;;;;;;5015333;28;20945;-79
2022/07/21 14:05:51;;;;;;;8.67;7.83;;;28.80;34.50;;;;;;5009907;28;20465;-78
2022/07/21 14:08:37;;;;;;;8.50;6.53;;;28.30;35.90;;;;;;5005678;28;20493;-78
2022/07/21 14:11:23;;;;;;;7.13;6.40;;;28.40;39.10;;;;;;5007434;28;20453;-78
2022/07/21 14:14:10;;;;;;;7.67;6.23;;;28.40;37.70;;;;;;5022290;28;20794;-78
2022/07/21 14:16:57;;;;;;;11.73;6.90;;;28.50;33.40;;;;;;5014454;28;20487;-79
2022/07/21 14:19:43;;;;;;;12.10;6.83;;;28.70;35.40;;;;;;5007279;28;20445;-78
2022/07/21 14:22:29;;;;;;;7.67;6.53;;;28.70;33.50;;;;;;5010004;28;20492;-78